KMCI/MCI METAR and TAF weather

Enter ICAO airport designator
Station Type Date Time Source
KMCI METAR 2022/06/27 16:53 UTC NOAA

KMCI 271653Z 00000KT 10SM SCT200 25/08 A3036 RMK AO2 SLP272 VIRGA DSNT W T02500078


Station Type Date Time Source
KMCI Decoded METAR 2022/06/27 16:53 UTC NOAA

KANSAS CITY INTERNATIONAL AIRPORT, MO, United States (KMCI) 39-18N 94-44W 320M
Jun 27, 2022 - 12:53 PM EDT / 2022.06.27 1653 UTC
Wind: Calm:0
Visibility: 10 mile(s):0
Sky conditions: partly cloudy
Temperature: 77.0 F (25.0 C)
Dew Point: 46.0 F (7.8 C)
Relative Humidity: 33%
Pressure (altimeter): 30.36 in. Hg (1028 hPa)
ob: KMCI 271653Z 00000KT 10SM SCT200 25/08 A3036 RMK AO2 SLP272 VIRGA DSNT W T02500078
cycle: 17

Station Type Date Time Source
KMCI TAF 2022/06/27 12:24 UTC NOAA

TAF KMCI 271120Z 2712/2812 03006KT P6SM SCT250

Example: see airport list